createdAt,value
2018-05-26T00:02:22.664Z,84.35
2018-05-26T00:04:50.790Z,84.50
2018-05-26T00:07:18.926Z,84.43
2018-05-26T00:09:47.047Z,84.37
2018-05-26T00:12:15.177Z,84.52
2018-05-26T00:14:43.317Z,84.41
2018-05-26T00:17:11.435Z,84.50
2018-05-26T00:19:39.557Z,84.64
2018-05-26T00:22:07.687Z,84.92
2018-05-26T00:24:35.818Z,85.07
2018-05-26T00:27:03.945Z,85.03
2018-05-26T00:29:32.085Z,84.86
2018-05-26T00:32:00.227Z,85.15
2018-05-26T00:34:28.334Z,85.17
2018-05-26T00:36:57.311Z,85.81
2018-05-26T00:39:25.427Z,85.90
2018-05-26T00:41:53.580Z,85.78
2018-05-26T00:44:21.691Z,85.70
2018-05-26T00:46:49.824Z,85.53
2018-05-26T00:49:17.956Z,85.77
2018-05-26T00:51:46.203Z,85.27
2018-05-26T00:54:14.326Z,85.10
2018-05-26T00:56:42.436Z,84.81
2018-05-26T00:59:10.573Z,84.19
2018-05-26T01:01:38.690Z,84.37
2018-05-26T01:04:06.842Z,84.57
2018-05-26T01:06:34.979Z,85.02
2018-05-26T01:09:03.112Z,85.28
2018-05-26T01:11:31.238Z,85.29
2018-05-26T01:13:59.384Z,85.33
2018-05-26T01:16:27.499Z,85.43
2018-05-26T01:18:55.633Z,85.70
2018-05-26T01:21:23.769Z,85.70
2018-05-26T01:23:51.916Z,86.13
2018-05-26T01:26:20.241Z,86.10
2018-05-26T01:28:48.362Z,86.13
2018-05-26T01:31:16.501Z,86.13
2018-05-26T01:33:44.647Z,86.04
2018-05-26T01:36:12.785Z,86.21
2018-05-26T01:38:40.894Z,86.32
2018-05-26T01:41:09.038Z,86.28
2018-05-26T01:43:37.158Z,86.47
2018-05-26T01:46:11.024Z,86.65
2018-05-26T01:48:39.142Z,86.54
2018-05-26T01:51:07.267Z,86.68
2018-05-26T01:53:35.380Z,86.62
2018-05-26T01:56:03.520Z,86.96
2018-05-26T01:58:31.667Z,86.87
2018-05-26T02:00:59.774Z,87.26
2018-05-26T02:03:27.899Z,87.01
2018-05-26T02:05:56.036Z,87.35
2018-05-26T02:08:24.302Z,87.16
2018-05-26T02:10:52.446Z,87.49
2018-05-26T02:13:20.572Z,87.45
2018-05-26T02:15:48.719Z,87.30
2018-05-26T02:18:17.011Z,87.33
2018-05-26T02:20:45.145Z,87.50
2018-05-26T02:23:13.274Z,87.47
2018-05-26T02:25:41.539Z,87.55
2018-05-26T02:28:09.670Z,87.81
2018-05-26T02:30:37.822Z,87.65
2018-05-26T02:33:05.957Z,87.63
2018-05-26T02:35:34.062Z,87.80
2018-05-26T02:38:02.183Z,87.69
2018-05-26T02:40:30.317Z,87.67
2018-05-26T02:42:58.453Z,87.49
2018-05-26T02:45:26.577Z,87.56
2018-05-26T02:47:54.724Z,87.69
2018-05-26T02:50:22.830Z,87.55
2018-05-26T02:52:50.994Z,87.48
2018-05-26T02:55:19.148Z,87.63
2018-05-26T02:57:47.269Z,87.57
2018-05-26T03:00:15.390Z,87.53
2018-05-26T03:02:43.519Z,87.38
2018-05-26T03:05:17.187Z,87.45
2018-05-26T03:07:50.863Z,87.58
2018-05-26T03:10:24.353Z,87.54
2018-05-26T03:12:58.150Z,87.38
2018-05-26T03:15:25.745Z,87.15
2018-05-26T03:17:59.686Z,87.77
2018-05-26T03:20:27.955Z,87.78
2018-05-26T03:22:56.077Z,87.75
2018-05-26T03:25:24.413Z,87.70
2018-05-26T03:27:52.526Z,87.68
2018-05-26T03:30:20.675Z,87.40
2018-05-26T03:32:48.825Z,87.29
2018-05-26T03:35:16.968Z,86.83
2018-05-26T03:37:45.104Z,86.87
2018-05-26T03:40:13.241Z,86.43
2018-05-26T03:42:41.388Z,86.45
2018-05-26T03:45:09.531Z,86.48
2018-05-26T03:47:37.661Z,86.25
2018-05-26T03:50:05.788Z,85.96
2018-05-26T03:52:33.895Z,85.83
2018-05-26T03:58:24.687Z,85.85
2018-05-26T04:00:52.826Z,85.64
2018-05-26T04:03:20.962Z,85.27
2018-05-26T04:05:49.138Z,85.21
2018-05-26T04:08:17.677Z,85.15
2018-05-26T04:10:45.824Z,85.39
2018-05-26T04:13:13.930Z,85.26
2018-05-26T04:15:42.073Z,85.13
2018-05-26T04:18:10.205Z,85.04
2018-05-26T04:20:38.318Z,85.27
2018-05-26T04:23:06.443Z,85.07
2018-05-26T04:25:34.577Z,84.64
2018-05-26T04:28:02.704Z,84.40
2018-05-26T04:30:30.829Z,83.94
2018-05-26T04:32:58.967Z,83.97
2018-05-26T04:35:27.145Z,83.93
2018-05-26T04:37:55.388Z,83.73
2018-05-26T04:40:23.577Z,83.89
2018-05-26T04:42:51.695Z,83.86
2018-05-26T04:45:20.027Z,84.23
2018-05-26T04:47:48.146Z,84.47
2018-05-26T04:50:16.280Z,84.83
2018-05-26T04:52:44.443Z,84.74
2018-05-26T04:55:12.624Z,84.90
2018-05-26T04:57:40.766Z,84.85
2018-05-26T05:00:08.887Z,84.80
2018-05-26T05:02:37.006Z,85.01
2018-05-26T05:05:05.129Z,85.05
2018-05-26T05:07:33.327Z,85.33
2018-05-26T05:10:01.453Z,85.08
2018-05-26T05:12:29.577Z,84.86
2018-05-26T05:14:57.729Z,85.05
2018-05-26T05:17:25.856Z,85.11
2018-05-26T05:19:53.984Z,85.30
2018-05-26T05:22:24.021Z,85.49
2018-05-26T05:24:52.149Z,85.32
2018-05-26T05:27:20.274Z,85.06
2018-05-26T05:29:48.441Z,85.09
2018-05-26T05:32:16.546Z,85.27
2018-05-26T05:34:44.692Z,85.32
2018-05-26T05:37:12.826Z,85.15
2018-05-26T05:39:40.971Z,85.02
2018-05-26T05:42:09.089Z,84.92
2018-05-26T05:44:37.220Z,84.74
2018-05-26T05:47:08.688Z,84.45
2018-05-26T05:49:36.842Z,84.36
2018-05-26T05:52:08.495Z,84.36
2018-05-26T05:54:36.626Z,83.51
2018-05-26T05:57:04.750Z,83.07
2018-05-26T05:59:32.892Z,82.75
2018-05-26T06:02:01.017Z,82.91
2018-05-26T06:04:29.171Z,82.52
2018-05-26T06:06:57.301Z,82.82
2018-05-26T06:09:25.414Z,82.64
2018-05-26T06:11:53.555Z,82.59
2018-05-26T06:14:21.689Z,81.59
2018-05-26T06:16:49.838Z,81.83
2018-05-26T06:19:18.008Z,81.54
2018-05-26T06:21:46.127Z,82.16
2018-05-26T06:24:14.272Z,82.19
2018-05-26T06:26:42.401Z,80.73
2018-05-26T06:29:10.560Z,80.19
2018-05-26T06:31:38.695Z,78.89
2018-05-26T06:34:06.801Z,78.57
2018-05-26T06:36:34.968Z,78.54
2018-05-26T06:39:03.074Z,78.50
2018-05-26T06:41:31.194Z,78.63
2018-05-26T06:43:59.565Z,78.91
2018-05-26T06:46:27.905Z,79.11
2018-05-26T06:48:56.041Z,78.30
2018-05-26T06:51:24.203Z,78.22
2018-05-26T06:53:52.304Z,78.30
2018-05-26T06:56:20.439Z,78.44
2018-05-26T06:58:48.582Z,77.06
2018-05-26T07:01:16.692Z,77.56
2018-05-26T07:03:44.817Z,77.07
2018-05-26T07:06:12.969Z,74.03
2018-05-26T07:08:41.071Z,75.02
2018-05-26T07:11:09.196Z,76.13
2018-05-26T07:13:37.320Z,76.80
2018-05-26T07:16:05.446Z,76.53
2018-05-26T07:18:33.579Z,73.87
2018-05-26T07:21:01.738Z,73.60
2018-05-26T07:23:29.835Z,72.15
2018-05-26T07:25:57.943Z,70.65
2018-05-26T07:28:26.071Z,70.71
2018-05-26T07:30:54.199Z,70.58
2018-05-26T07:33:22.325Z,71.23
2018-05-26T07:35:50.456Z,71.72
2018-05-26T07:38:18.555Z,72.51
2018-05-26T07:40:46.686Z,71.14
2018-05-26T07:43:14.804Z,71.87
2018-05-26T07:45:42.935Z,72.29
2018-05-26T07:48:11.077Z,72.25
2018-05-26T07:50:39.189Z,71.66
2018-05-26T07:53:07.335Z,70.88
2018-05-26T07:55:35.443Z,71.06
2018-05-26T07:58:03.587Z,70.26
2018-05-26T08:00:31.737Z,68.23
2018-05-26T08:02:59.835Z,68.50
2018-05-26T08:05:28.031Z,68.60
2018-05-26T08:07:56.107Z,64.83
2018-05-26T08:10:24.604Z,64.49
2018-05-26T08:12:52.919Z,67.17
2018-05-26T08:15:21.046Z,66.06
2018-05-26T08:17:49.173Z,64.77
2018-05-26T08:20:17.311Z,63.61
2018-05-26T08:22:48.351Z,63.15
2018-05-26T08:25:16.458Z,62.89
2018-05-26T08:27:44.619Z,63.47
2018-05-26T08:30:12.724Z,64.21
2018-05-26T08:32:40.845Z,64.24
2018-05-26T08:35:08.988Z,64.44
2018-05-26T08:37:37.132Z,65.39
2018-05-26T08:40:05.252Z,65.29
2018-05-26T08:42:33.397Z,63.74
2018-05-26T08:45:01.510Z,63.47
2018-05-26T08:47:29.628Z,63.11
2018-05-26T08:49:57.799Z,62.69
2018-05-26T08:52:25.915Z,61.36
2018-05-26T08:54:54.057Z,61.97
2018-05-26T08:57:22.149Z,62.21
2018-05-26T08:59:50.265Z,61.66
2018-05-26T09:02:18.449Z,62.00
2018-05-26T09:04:46.553Z,61.86
2018-05-26T09:07:14.670Z,62.25
2018-05-26T09:09:42.793Z,62.33
2018-05-26T09:12:10.919Z,62.59
2018-05-26T09:14:39.051Z,61.98
2018-05-26T09:17:07.181Z,60.69
2018-05-26T09:19:35.355Z,61.07
2018-05-26T09:22:03.483Z,61.70
2018-05-26T09:24:31.604Z,61.98
2018-05-26T09:26:59.742Z,62.06
2018-05-26T09:29:27.850Z,62.53
2018-05-26T09:31:55.991Z,59.81
2018-05-26T09:34:24.296Z,59.93
2018-05-26T09:36:52.433Z,59.36
2018-05-26T09:39:20.942Z,59.09
2018-05-26T09:41:49.075Z,59.72
2018-05-26T09:44:17.209Z,59.95
2018-05-26T09:46:45.295Z,60.77
2018-05-26T09:49:13.472Z,60.22
2018-05-26T09:51:41.572Z,61.25
2018-05-26T09:54:12.972Z,61.19
2018-05-26T09:56:41.093Z,61.00
2018-05-26T09:59:09.224Z,60.42
2018-05-26T10:01:37.344Z,59.96
2018-05-26T10:04:05.463Z,60.48
2018-05-26T10:06:33.610Z,60.99
2018-05-26T10:09:01.708Z,60.80
2018-05-26T10:11:29.835Z,61.25
2018-05-26T10:13:57.952Z,61.12
2018-05-26T10:16:26.090Z,59.91
2018-05-26T10:18:54.195Z,60.51
2018-05-26T10:21:22.344Z,60.46
2018-05-26T10:23:50.509Z,59.78
2018-05-26T10:26:18.835Z,60.16
2018-05-26T10:28:47.098Z,56.78
2018-05-26T10:31:15.209Z,57.28
2018-05-26T10:33:43.363Z,57.30
2018-05-26T10:36:11.632Z,57.14
2018-05-26T10:38:39.766Z,55.23
2018-05-26T10:41:07.908Z,54.92
2018-05-26T10:43:36.038Z,56.07
2018-05-26T10:46:16.107Z,54.79
2018-05-26T10:48:44.229Z,56.10
2018-05-26T10:51:12.345Z,55.23
2018-05-26T10:53:40.469Z,51.68
2018-05-26T10:56:08.604Z,52.75
2018-05-26T10:58:36.732Z,51.77
2018-05-26T11:01:04.845Z,51.04
2018-05-26T11:03:32.981Z,49.84
2018-05-26T11:06:01.112Z,49.19
2018-05-26T11:08:29.410Z,49.49
2018-05-26T11:10:57.502Z,50.51
2018-05-26T11:13:25.665Z,51.26
2018-05-26T11:15:53.772Z,52.34
2018-05-26T11:18:21.895Z,51.57
2018-05-26T11:20:49.990Z,48.73
2018-05-26T11:23:18.180Z,50.15
2018-05-26T11:25:46.261Z,49.70
2018-05-26T11:28:14.388Z,49.61
2018-05-26T11:30:42.588Z,49.54
2018-05-26T11:33:10.693Z,47.75
2018-05-26T11:35:38.831Z,47.48
2018-05-26T11:38:06.972Z,48.48
2018-05-26T11:40:35.081Z,48.43
2018-05-26T11:43:03.228Z,49.21
2018-05-26T11:45:31.419Z,49.35
2018-05-26T11:47:59.538Z,47.91
2018-05-26T11:50:27.659Z,48.99
2018-05-26T11:52:55.846Z,48.41
2018-05-26T11:55:24.022Z,48.91
2018-05-26T11:57:52.136Z,49.54
2018-05-26T12:00:20.278Z,47.02
2018-05-26T12:02:48.411Z,46.81
2018-05-26T12:05:16.551Z,49.47
2018-05-26T12:07:44.658Z,48.40
2018-05-26T12:10:12.796Z,47.35
2018-05-26T12:12:40.942Z,47.88
2018-05-26T12:15:09.061Z,46.85
2018-05-26T12:17:37.176Z,46.66
2018-05-26T12:20:05.325Z,46.83
2018-05-26T12:22:33.435Z,47.33
2018-05-26T12:25:01.579Z,47.48
2018-05-26T12:27:29.693Z,45.99
2018-05-26T12:29:57.814Z,47.28
2018-05-26T12:32:25.960Z,45.37
2018-05-26T12:34:54.079Z,46.31
2018-05-26T12:37:22.204Z,47.49
2018-05-26T12:39:50.330Z,47.90
2018-05-26T12:42:18.430Z,47.15
2018-05-26T12:44:46.581Z,48.46
2018-05-26T12:47:14.714Z,46.78
2018-05-26T12:49:42.839Z,45.62
2018-05-26T12:52:10.994Z,45.57
2018-05-26T12:54:39.054Z,46.58
2018-05-26T12:57:07.166Z,48.65
2018-05-26T12:59:35.305Z,47.73
2018-05-26T13:02:03.453Z,47.18
2018-05-26T13:04:31.643Z,50.14
2018-05-26T13:06:59.886Z,47.14
2018-05-26T13:09:27.998Z,45.51
2018-05-26T13:11:56.127Z,45.17
2018-05-26T13:14:24.275Z,44.54
2018-05-26T13:16:52.389Z,45.35
2018-05-26T13:19:20.849Z,45.02
2018-05-26T13:21:48.977Z,43.90
2018-05-26T13:24:17.100Z,43.43
2018-05-26T13:26:45.239Z,44.04
2018-05-26T13:29:13.353Z,43.21
2018-05-26T13:31:41.481Z,43.20
2018-05-26T13:34:09.619Z,43.57
2018-05-26T13:36:37.706Z,42.66
2018-05-26T13:39:05.819Z,43.28
2018-05-26T13:41:33.961Z,43.48
2018-05-26T13:44:02.062Z,43.49
2018-05-26T13:46:30.177Z,42.79
2018-05-26T13:48:58.417Z,42.71
2018-05-26T13:51:26.598Z,42.52
2018-05-26T13:53:54.677Z,42.23
2018-05-26T13:56:22.821Z,42.19
2018-05-26T13:58:50.899Z,43.28
2018-05-26T14:01:18.999Z,43.98
2018-05-26T14:03:47.115Z,43.84
2018-05-26T14:06:15.244Z,42.70
2018-05-26T14:08:43.380Z,42.21
2018-05-26T14:11:11.505Z,42.97
2018-05-26T14:13:39.623Z,42.95
2018-05-26T14:16:07.731Z,42.54
2018-05-26T14:18:35.857Z,43.55
2018-05-26T14:21:03.951Z,42.13
2018-05-26T14:23:32.085Z,41.16
2018-05-26T14:26:00.219Z,42.90
2018-05-26T14:28:28.340Z,42.28
2018-05-26T14:30:56.447Z,42.15
2018-05-26T14:33:24.565Z,41.29
2018-05-26T14:35:52.679Z,41.42
2018-05-26T14:38:20.828Z,41.95
2018-05-26T14:40:48.950Z,42.22
2018-05-26T14:43:17.053Z,42.29
2018-05-26T14:45:45.173Z,42.28
2018-05-26T14:48:13.313Z,42.69
2018-05-26T14:50:41.463Z,40.32
2018-05-26T14:53:13.032Z,40.92
2018-05-26T14:55:41.149Z,41.05
2018-05-26T14:58:09.253Z,40.53
2018-05-26T15:00:37.385Z,41.69
2018-05-26T15:03:05.589Z,41.45
2018-05-26T15:05:33.787Z,41.94
2018-05-26T15:08:01.901Z,41.44
2018-05-26T15:10:30.033Z,40.43
2018-05-26T15:12:58.303Z,41.68
2018-05-26T15:15:26.264Z,42.07
2018-05-26T15:17:54.384Z,43.51
2018-05-26T15:20:22.511Z,43.98
2018-05-26T15:22:50.645Z,42.65
2018-05-26T15:25:18.761Z,43.51
2018-05-26T15:27:46.871Z,42.98
2018-05-26T15:30:14.980Z,43.92
2018-05-26T15:32:43.119Z,45.08
2018-05-26T15:35:11.256Z,45.41
2018-05-26T15:37:39.355Z,46.40
2018-05-26T15:40:07.496Z,46.41
2018-05-26T15:42:35.665Z,45.50
2018-05-26T15:45:03.778Z,44.86
2018-05-26T15:47:31.908Z,47.03
2018-05-26T15:50:00.030Z,47.86
2018-05-26T15:52:28.159Z,47.48
2018-05-26T15:54:56.299Z,46.99
2018-05-26T15:57:24.413Z,47.80
2018-05-26T15:59:52.539Z,46.60
2018-05-26T16:02:20.651Z,45.28
2018-05-26T16:04:48.792Z,46.13
2018-05-26T16:07:16.912Z,47.03
2018-05-26T16:09:45.031Z,47.50
2018-05-26T16:12:13.147Z,45.76
2018-05-26T16:14:41.272Z,45.91
2018-05-26T16:17:09.419Z,45.87
2018-05-26T16:19:37.609Z,46.74
2018-05-26T16:22:05.722Z,46.24
2018-05-26T16:24:33.828Z,48.16
2018-05-26T16:27:01.955Z,47.58
2018-05-26T16:29:30.065Z,46.33
2018-05-26T16:31:58.189Z,46.53
2018-05-26T16:34:26.307Z,47.54
2018-05-26T16:36:54.416Z,48.80
2018-05-26T16:39:22.530Z,46.92
2018-05-26T16:41:50.648Z,47.52
2018-05-26T16:44:18.766Z,47.43
2018-05-26T16:46:46.924Z,47.58
2018-05-26T16:49:15.145Z,48.13
2018-05-26T16:51:43.266Z,48.41
2018-05-26T16:54:11.499Z,48.52
2018-05-26T16:56:39.647Z,48.74
2018-05-26T16:59:07.747Z,47.44
2018-05-26T17:01:35.881Z,46.78
2018-05-26T17:04:03.998Z,46.47
2018-05-26T17:06:32.117Z,46.99
2018-05-26T17:09:00.289Z,47.77
2018-05-26T17:11:28.424Z,48.29
2018-05-26T17:13:56.552Z,47.94
2018-05-26T17:16:24.689Z,47.79
2018-05-26T17:18:52.794Z,47.11
2018-05-26T17:21:20.903Z,47.51
2018-05-26T17:23:49.044Z,48.15
2018-05-26T17:26:17.175Z,49.80
2018-05-26T17:28:45.290Z,48.71
2018-05-26T17:31:13.564Z,47.54
2018-05-26T17:33:41.688Z,45.96
2018-05-26T17:36:12.515Z,44.76
2018-05-26T17:38:40.625Z,44.35
2018-05-26T17:41:08.772Z,44.07
2018-05-26T17:43:36.885Z,43.35
2018-05-26T17:46:04.987Z,44.99
2018-05-26T17:48:33.124Z,44.96
2018-05-26T17:51:01.237Z,44.87
2018-05-26T17:53:29.372Z,44.87
2018-05-26T17:55:57.467Z,45.54
2018-05-26T17:58:25.856Z,45.93
2018-05-26T18:00:53.961Z,44.27
2018-05-26T18:03:22.068Z,44.71
2018-05-26T18:05:50.212Z,44.34
2018-05-26T18:08:18.317Z,44.14
2018-05-26T18:10:46.472Z,44.66
2018-05-26T18:13:14.599Z,45.30
2018-05-26T18:15:42.702Z,44.85
2018-05-26T18:18:10.835Z,45.27
2018-05-26T18:20:38.949Z,44.99
2018-05-26T18:23:07.078Z,44.62
2018-05-26T18:25:35.194Z,45.78
2018-05-26T18:28:03.298Z,45.45
2018-05-26T18:30:31.416Z,45.13
2018-05-26T18:32:59.532Z,44.42
2018-05-26T18:35:27.825Z,44.72
2018-05-26T18:37:55.957Z,44.34
2018-05-26T18:40:24.094Z,44.86
2018-05-26T18:42:52.218Z,45.02
2018-05-26T18:45:20.336Z,45.05
2018-05-26T18:47:48.465Z,45.27
2018-05-26T18:50:16.578Z,45.34
2018-05-26T18:52:47.836Z,44.63
2018-05-26T18:55:15.947Z,44.38
2018-05-26T18:57:44.047Z,44.93
2018-05-26T19:00:12.233Z,45.11
2018-05-26T19:02:41.026Z,44.65
2018-05-26T19:05:09.153Z,44.95
2018-05-26T19:07:37.258Z,44.78
2018-05-26T19:10:05.385Z,44.44
2018-05-26T19:12:33.510Z,44.83
2018-05-26T19:15:01.626Z,45.25
2018-05-26T19:17:29.746Z,46.88
2018-05-26T19:19:57.861Z,46.44
2018-05-26T19:22:25.994Z,46.28
2018-05-26T19:24:54.451Z,47.21
2018-05-26T19:27:22.584Z,48.10
2018-05-26T19:29:50.696Z,48.41
2018-05-26T19:32:18.818Z,49.46
2018-05-26T19:34:46.950Z,49.57
2018-05-26T19:37:15.090Z,49.73
2018-05-26T19:39:43.234Z,50.15
2018-05-26T19:42:11.361Z,50.61
2018-05-26T19:44:39.470Z,50.57
2018-05-26T19:47:07.594Z,50.57
2018-05-26T19:49:39.051Z,49.83
2018-05-26T19:52:07.177Z,50.22
2018-05-26T19:54:35.308Z,51.38
2018-05-26T19:57:03.449Z,51.52
2018-05-26T19:59:31.542Z,51.38
2018-05-26T20:01:59.663Z,51.93
2018-05-26T20:04:27.800Z,52.63
2018-05-26T20:06:55.917Z,53.07
2018-05-26T20:09:27.362Z,53.00
2018-05-26T20:11:55.583Z,53.67
2018-05-26T20:14:23.680Z,53.98
2018-05-26T20:16:51.852Z,54.35
2018-05-26T20:19:20.131Z,54.63
2018-05-26T20:21:48.269Z,54.77
2018-05-26T20:24:16.377Z,55.02
2018-05-26T20:26:44.688Z,55.33
2018-05-26T20:29:12.803Z,55.25
2018-05-26T20:31:40.921Z,54.57
2018-05-26T20:34:09.102Z,54.64
2018-05-26T20:36:41.128Z,54.50
2018-05-26T20:39:09.247Z,55.39
2018-05-26T20:41:37.628Z,55.72
2018-05-26T20:44:05.764Z,56.08
2018-05-26T20:46:33.911Z,55.84
2018-05-26T20:49:02.007Z,56.13
2018-05-26T20:51:30.172Z,56.20
2018-05-26T20:53:58.290Z,56.10
2018-05-26T20:56:30.149Z,55.30
2018-05-26T20:58:58.272Z,55.43
2018-05-26T21:01:26.406Z,56.17
2018-05-26T21:03:54.526Z,54.84
2018-05-26T21:06:22.667Z,55.64
2018-05-26T21:08:50.789Z,55.92
2018-05-26T21:11:18.977Z,56.12
2018-05-26T21:13:47.109Z,56.46
2018-05-26T21:16:15.219Z,56.40
2018-05-26T21:18:43.353Z,56.17
2018-05-26T21:21:11.561Z,56.56
2018-05-26T21:23:39.641Z,57.12
2018-05-26T21:26:07.757Z,58.02
2018-05-26T21:28:35.896Z,57.85
2018-05-26T21:31:04.027Z,57.84
2018-05-26T21:33:32.220Z,57.95
2018-05-26T21:36:00.336Z,58.11
2018-05-26T21:38:28.452Z,58.45
2018-05-26T21:40:56.577Z,57.96
2018-05-26T21:43:24.697Z,57.97
2018-05-26T21:45:52.810Z,58.54
2018-05-26T21:48:23.961Z,58.82
2018-05-26T21:50:52.094Z,58.78
2018-05-26T21:53:20.224Z,58.92
2018-05-26T21:55:48.352Z,58.96
2018-05-26T21:58:16.477Z,58.87
2018-05-26T22:00:44.594Z,59.19
2018-05-26T22:03:12.725Z,59.32
2018-05-26T22:05:40.884Z,59.09
2018-05-26T22:10:36.256Z,59.43
2018-05-26T22:13:04.457Z,59.60
2018-05-26T22:15:35.811Z,60.04
2018-05-26T22:18:03.943Z,60.02
2018-05-26T22:20:32.062Z,59.64
2018-05-26T22:23:00.211Z,59.83
2018-05-26T22:25:28.313Z,59.67
2018-05-26T22:27:56.459Z,59.22
2018-05-26T22:30:24.578Z,59.73
2018-05-26T22:32:52.691Z,59.74
2018-05-26T22:35:20.817Z,59.81
2018-05-26T22:37:48.959Z,59.52
2018-05-26T22:40:17.092Z,59.22
2018-05-26T22:42:45.236Z,58.76
2018-05-26T22:45:13.361Z,58.65
2018-05-26T22:47:41.465Z,59.24
2018-05-26T22:50:15.301Z,57.96
2018-05-26T22:52:43.410Z,58.81
2018-05-26T22:55:12.367Z,58.43
2018-05-26T22:57:40.522Z,59.16
2018-05-26T23:00:08.645Z,59.71
2018-05-26T23:02:36.769Z,58.26
2018-05-26T23:05:04.912Z,59.57
2018-05-26T23:07:33.037Z,60.08
2018-05-26T23:10:01.152Z,60.23
2018-05-26T23:12:29.276Z,60.45
2018-05-26T23:14:57.420Z,60.33
2018-05-26T23:17:25.525Z,58.87
2018-05-26T23:19:53.653Z,59.18
2018-05-26T23:22:21.811Z,60.14
2018-05-26T23:24:49.921Z,59.86
2018-05-26T23:27:18.069Z,59.35
2018-05-26T23:29:46.213Z,60.03
2018-05-26T23:32:14.351Z,60.04
2018-05-26T23:34:42.484Z,59.68
2018-05-26T23:37:10.605Z,60.55
2018-05-26T23:39:38.750Z,60.37
2018-05-26T23:42:06.883Z,60.97
2018-05-26T23:44:35.193Z,60.68
2018-05-26T23:47:03.324Z,58.45
2018-05-26T23:49:31.455Z,58.54
2018-05-26T23:51:59.560Z,57.62
2018-05-26T23:54:27.676Z,57.27
2018-05-26T23:56:55.816Z,57.28
2018-05-26T23:59:23.936Z,57.41
